sensor_id;sensor_type;location;lat;lon;timestamp;temperature;humidity
29687;DHT22;16599;47.078;15.536;2023-05-02T00:01:19;10.70;99.90
29687;DHT22;16599;47.078;15.536;2023-05-02T00:03:46;10.70;99.90
29687;DHT22;16599;47.078;15.536;2023-05-02T00:06:13;10.70;99.90
29687;DHT22;16599;47.078;15.536;2023-05-02T00:08:40;10.50;99.90
29687;DHT22;16599;47.078;15.536;2023-05-02T00:11:07;10.40;99.90
29687;DHT22;16599;47.078;15.536;2023-05-02T00:13:34;10.40;99.90
29687;DHT22;16599;47.078;15.536;2023-05-02T00:16:01;10.40;99.90
29687;DHT22;16599;47.078;15.536;2023-05-02T00:18:28;10.50;99.90
29687;DHT22;16599;47.078;15.536;2023-05-02T00:20:55;10.50;99.90
29687;DHT22;16599;47.078;15.536;2023-05-02T00:23:22;10.50;99.90
29687;DHT22;16599;47.078;15.536;2023-05-02T00:25:49;10.40;99.90
29687;DHT22;16599;47.078;15.536;2023-05-02T00:28:16;10.40;99.90
29687;DHT22;16599;47.078;15.536;2023-05-02T00:30:44;10.50;99.90
29687;DHT22;16599;47.078;15.536;2023-05-02T00:33:13;10.50;99.90
29687;DHT22;16599;47.078;15.536;2023-05-02T00:35:40;10.30;99.90
29687;DHT22;16599;47.078;15.536;2023-05-02T00:38:08;10.30;99.90
29687;DHT22;16599;47.078;15.536;2023-05-02T00:40:48;10.20;99.90
29687;DHT22;16599;47.078;15.536;2023-05-02T00:43:17;10.10;99.90
29687;DHT22;16599;47.078;15.536;2023-05-02T00:45:44;10.20;99.90
29687;DHT22;16599;47.078;15.536;2023-05-02T00:48:12;10.20;99.90
29687;DHT22;16599;47.078;15.536;2023-05-02T00:50:41;10.30;99.90
29687;DHT22;16599;47.078;15.536;2023-05-02T00:53:09;10.30;99.90
29687;DHT22;16599;47.078;15.536;2023-05-02T00:55:37;10.20;99.90
29687;DHT22;16599;47.078;15.536;2023-05-02T00:58:14;10.20;99.90
29687;DHT22;16599;47.078;15.536;2023-05-02T01:01:29;10.20;99.90
29687;DHT22;16599;47.078;15.536;2023-05-02T01:13:16;10.20;99.90
29687;DHT22;16599;47.078;15.536;2023-05-02T01:15:34;10.20;99.90
29687;DHT22;16599;47.078;15.536;2023-05-02T01:18:04;10.10;99.90
29687;DHT22;16599;47.078;15.536;2023-05-02T01:20:36;10.20;99.90
29687;DHT22;16599;47.078;15.536;2023-05-02T01:31:18;10.20;99.90
29687;DHT22;16599;47.078;15.536;2023-05-02T01:33:45;10.20;99.90
29687;DHT22;16599;47.078;15.536;2023-05-02T01:36:15;10.20;99.90
29687;DHT22;16599;47.078;15.536;2023-05-02T01:38:43;10.20;99.90
29687;DHT22;16599;47.078;15.536;2023-05-02T01:41:12;10.20;99.90
29687;DHT22;16599;47.078;15.536;2023-05-02T01:43:39;10.10;99.90
29687;DHT22;16599;47.078;15.536;2023-05-02T01:46:09;10.10;99.90
29687;DHT22;16599;47.078;15.536;2023-05-02T01:48:36;10.10;99.90
29687;DHT22;16599;47.078;15.536;2023-05-02T01:51:04;10.10;99.90
29687;DHT22;16599;47.078;15.536;2023-05-02T01:53:33;10.20;99.90
29687;DHT22;16599;47.078;15.536;2023-05-02T01:56:01;10.20;99.90
29687;DHT22;16599;47.078;15.536;2023-05-02T01:58:29;10.20;99.90
29687;DHT22;16599;47.078;15.536;2023-05-02T02:00:59;10.20;99.90
29687;DHT22;16599;47.078;15.536;2023-05-02T02:03:30;10.10;99.90
29687;DHT22;16599;47.078;15.536;2023-05-02T02:05:58;10.10;99.90
29687;DHT22;16599;47.078;15.536;2023-05-02T02:08:26;10.10;99.90
29687;DHT22;16599;47.078;15.536;2023-05-02T02:10:58;10.10;99.90
29687;DHT22;16599;47.078;15.536;2023-05-02T02:13:30;10.10;99.90
29687;DHT22;16599;47.078;15.536;2023-05-02T02:16:02;10.20;99.90
29687;DHT22;16599;47.078;15.536;2023-05-02T02:18:35;10.20;99.90
29687;DHT22;16599;47.078;15.536;2023-05-02T02:21:02;10.20;99.90
29687;DHT22;16599;47.078;15.536;2023-05-02T02:23:33;10.10;99.90
29687;DHT22;16599;47.078;15.536;2023-05-02T02:26:01;10.20;99.90
29687;DHT22;16599;47.078;15.536;2023-05-02T02:28:28;10.20;99.90
29687;DHT22;16599;47.078;15.536;2023-05-02T02:30:56;10.30;99.90
29687;DHT22;16599;47.078;15.536;2023-05-02T02:33:27;10.30;99.90
29687;DHT22;16599;47.078;15.536;2023-05-02T02:36:11;10.30;99.90
29687;DHT22;16599;47.078;15.536;2023-05-02T02:44:34;10.20;99.90
29687;DHT22;16599;47.078;15.536;2023-05-02T02:47:07;10.20;99.90
29687;DHT22;16599;47.078;15.536;2023-05-02T02:50:10;10.20;99.90
29687;DHT22;16599;47.078;15.536;2023-05-02T02:52:51;10.30;99.90
29687;DHT22;16599;47.078;15.536;2023-05-02T02:55:28;10.40;99.90
29687;DHT22;16599;47.078;15.536;2023-05-02T02:58:01;10.30;99.90
29687;DHT22;16599;47.078;15.536;2023-05-02T03:00:31;10.10;99.90
29687;DHT22;16599;47.078;15.536;2023-05-02T03:02:58;10.00;99.90
29687;DHT22;16599;47.078;15.536;2023-05-02T03:05:26;10.10;99.90
29687;DHT22;16599;47.078;15.536;2023-05-02T03:07:53;10.20;99.90
29687;DHT22;16599;47.078;15.536;2023-05-02T03:10:21;10.30;99.90
29687;DHT22;16599;47.078;15.536;2023-05-02T03:12:48;10.30;99.90
29687;DHT22;16599;47.078;15.536;2023-05-02T03:18:24;10.20;99.90
29687;DHT22;16599;47.078;15.536;2023-05-02T03:20:51;10.20;99.90
29687;DHT22;16599;47.078;15.536;2023-05-02T03:23:18;10.20;99.90
29687;DHT22;16599;47.078;15.536;2023-05-02T03:25:45;10.20;99.90
29687;DHT22;16599;47.078;15.536;2023-05-02T03:28:12;10.30;99.90
29687;DHT22;16599;47.078;15.536;2023-05-02T03:30:39;10.30;99.90
29687;DHT22;16599;47.078;15.536;2023-05-02T03:33:07;10.20;99.90
29687;DHT22;16599;47.078;15.536;2023-05-02T03:35:34;10.20;99.90
29687;DHT22;16599;47.078;15.536;2023-05-02T03:38:01;10.20;99.90
29687;DHT22;16599;47.078;15.536;2023-05-02T03:40:28;10.10;99.90
29687;DHT22;16599;47.078;15.536;2023-05-02T03:42:55;10.10;99.90
29687;DHT22;16599;47.078;15.536;2023-05-02T03:45:22;10.10;99.90
29687;DHT22;16599;47.078;15.536;2023-05-02T03:47:48;10.10;99.90
29687;DHT22;16599;47.078;15.536;2023-05-02T03:50:15;10.20;99.90
29687;DHT22;16599;47.078;15.536;2023-05-02T03:52:42;10.30;99.90
29687;DHT22;16599;47.078;15.536;2023-05-02T03:55:09;10.40;99.90
29687;DHT22;16599;47.078;15.536;2023-05-02T03:57:36;10.40;99.90
29687;DHT22;16599;47.078;15.536;2023-05-02T04:00:04;10.50;99.90
29687;DHT22;16599;47.078;15.536;2023-05-02T04:02:31;10.40;99.90
29687;DHT22;16599;47.078;15.536;2023-05-02T04:04:58;10.30;99.90
29687;DHT22;16599;47.078;15.536;2023-05-02T04:07:25;10.20;99.90
29687;DHT22;16599;47.078;15.536;2023-05-02T04:09:52;10.20;99.90
29687;DHT22;16599;47.078;15.536;2023-05-02T04:12:19;10.30;99.90
29687;DHT22;16599;47.078;15.536;2023-05-02T04:14:46;10.40;99.90
29687;DHT22;16599;47.078;15.536;2023-05-02T04:17:13;10.40;99.90
29687;DHT22;16599;47.078;15.536;2023-05-02T04:19:41;10.50;99.90
29687;DHT22;16599;47.078;15.536;2023-05-02T04:22:08;10.50;99.90
29687;DHT22;16599;47.078;15.536;2023-05-02T04:24:35;10.50;99.90
29687;DHT22;16599;47.078;15.536;2023-05-02T04:27:02;10.50;99.90
29687;DHT22;16599;47.078;15.536;2023-05-02T04:29:29;10.50;99.90
29687;DHT22;16599;47.078;15.536;2023-05-02T04:31:56;10.60;99.90
29687;DHT22;16599;47.078;15.536;2023-05-02T04:34:23;10.60;99.90
29687;DHT22;16599;47.078;15.536;2023-05-02T04:36:49;10.60;99.90
29687;DHT22;16599;47.078;15.536;2023-05-02T04:39:16;10.50;99.90
29687;DHT22;16599;47.078;15.536;2023-05-02T04:41:43;10.50;99.90
29687;DHT22;16599;47.078;15.536;2023-05-02T04:44:10;10.50;99.90
29687;DHT22;16599;47.078;15.536;2023-05-02T04:46:37;10.50;99.90
29687;DHT22;16599;47.078;15.536;2023-05-02T04:49:04;10.60;99.90
29687;DHT22;16599;47.078;15.536;2023-05-02T04:51:30;10.70;99.90
29687;DHT22;16599;47.078;15.536;2023-05-02T04:53:58;10.70;99.90
29687;DHT22;16599;47.078;15.536;2023-05-02T04:56:25;10.70;99.90
29687;DHT22;16599;47.078;15.536;2023-05-02T04:58:52;10.60;99.90
29687;DHT22;16599;47.078;15.536;2023-05-02T05:01:19;10.50;99.90
29687;DHT22;16599;47.078;15.536;2023-05-02T05:03:46;10.60;99.90
29687;DHT22;16599;47.078;15.536;2023-05-02T05:06:13;10.70;99.90
29687;DHT22;16599;47.078;15.536;2023-05-02T05:08:40;10.70;99.90
29687;DHT22;16599;47.078;15.536;2023-05-02T05:11:07;10.80;99.90
29687;DHT22;16599;47.078;15.536;2023-05-02T05:13:33;10.80;99.90
29687;DHT22;16599;47.078;15.536;2023-05-02T05:16:00;10.80;99.90
29687;DHT22;16599;47.078;15.536;2023-05-02T05:18:28;10.80;99.90
29687;DHT22;16599;47.078;15.536;2023-05-02T05:20:55;10.80;99.90
29687;DHT22;16599;47.078;15.536;2023-05-02T05:23:22;10.80;99.90
29687;DHT22;16599;47.078;15.536;2023-05-02T05:25:49;10.90;99.90
29687;DHT22;16599;47.078;15.536;2023-05-02T05:28:16;10.90;99.90
29687;DHT22;16599;47.078;15.536;2023-05-02T05:30:44;10.90;99.90
29687;DHT22;16599;47.078;15.536;2023-05-02T05:33:11;11.00;99.90
29687;DHT22;16599;47.078;15.536;2023-05-02T05:35:38;11.10;99.90
29687;DHT22;16599;47.078;15.536;2023-05-02T05:38:05;11.10;99.90
29687;DHT22;16599;47.078;15.536;2023-05-02T05:40:32;11.10;99.90
29687;DHT22;16599;47.078;15.536;2023-05-02T05:42:59;11.10;99.90
29687;DHT22;16599;47.078;15.536;2023-05-02T05:45:26;11.10;99.90
29687;DHT22;16599;47.078;15.536;2023-05-02T05:47:53;11.10;99.90
29687;DHT22;16599;47.078;15.536;2023-05-02T05:50:21;11.10;99.90
29687;DHT22;16599;47.078;15.536;2023-05-02T05:52:48;11.20;99.90
29687;DHT22;16599;47.078;15.536;2023-05-02T05:55:15;11.10;99.90
29687;DHT22;16599;47.078;15.536;2023-05-02T05:57:41;11.10;99.90
29687;DHT22;16599;47.078;15.536;2023-05-02T06:00:09;11.10;99.90
29687;DHT22;16599;47.078;15.536;2023-05-02T06:02:36;11.20;99.90
29687;DHT22;16599;47.078;15.536;2023-05-02T06:05:03;11.20;99.90
29687;DHT22;16599;47.078;15.536;2023-05-02T06:07:30;11.30;99.90
29687;DHT22;16599;47.078;15.536;2023-05-02T06:09:57;11.30;99.90
29687;DHT22;16599;47.078;15.536;2023-05-02T06:12:24;11.30;99.90
29687;DHT22;16599;47.078;15.536;2023-05-02T06:14:51;11.30;99.90
29687;DHT22;16599;47.078;15.536;2023-05-02T06:17:18;11.30;99.90
29687;DHT22;16599;47.078;15.536;2023-05-02T06:19:45;11.40;99.90
29687;DHT22;16599;47.078;15.536;2023-05-02T06:22:11;11.40;99.90
29687;DHT22;16599;47.078;15.536;2023-05-02T06:24:39;11.40;99.90
29687;DHT22;16599;47.078;15.536;2023-05-02T06:27:06;11.40;99.90
29687;DHT22;16599;47.078;15.536;2023-05-02T06:29:33;11.40;99.90
29687;DHT22;16599;47.078;15.536;2023-05-02T06:32:00;11.40;99.90
29687;DHT22;16599;47.078;15.536;2023-05-02T06:34:27;11.40;99.90
29687;DHT22;16599;47.078;15.536;2023-05-02T06:36:54;11.40;99.90
29687;DHT22;16599;47.078;15.536;2023-05-02T06:39:24;11.40;99.90
29687;DHT22;16599;47.078;15.536;2023-05-02T06:41:58;11.50;99.90
29687;DHT22;16599;47.078;15.536;2023-05-02T06:44:25;11.50;99.90
29687;DHT22;16599;47.078;15.536;2023-05-02T06:46:52;11.60;99.90
29687;DHT22;16599;47.078;15.536;2023-05-02T06:49:21;11.60;99.90
29687;DHT22;16599;47.078;15.536;2023-05-02T06:51:48;11.70;99.90
29687;DHT22;16599;47.078;15.536;2023-05-02T06:54:15;11.70;99.90
29687;DHT22;16599;47.078;15.536;2023-05-02T06:56:42;11.70;99.90
29687;DHT22;16599;47.078;15.536;2023-05-02T06:59:09;11.70;99.90
29687;DHT22;16599;47.078;15.536;2023-05-02T07:01:37;11.70;99.90
29687;DHT22;16599;47.078;15.536;2023-05-02T07:04:04;11.80;99.90
29687;DHT22;16599;47.078;15.536;2023-05-02T07:06:31;11.80;99.90
29687;DHT22;16599;47.078;15.536;2023-05-02T07:08:58;12.00;99.90
29687;DHT22;16599;47.078;15.536;2023-05-02T07:11:25;12.00;99.90
29687;DHT22;16599;47.078;15.536;2023-05-02T07:13:53;12.10;99.90
29687;DHT22;16599;47.078;15.536;2023-05-02T07:16:20;12.10;99.90
29687;DHT22;16599;47.078;15.536;2023-05-02T07:18:47;12.10;99.90
29687;DHT22;16599;47.078;15.536;2023-05-02T07:21:14;12.20;99.90
29687;DHT22;16599;47.078;15.536;2023-05-02T07:23:40;12.30;99.90
29687;DHT22;16599;47.078;15.536;2023-05-02T07:26:08;12.40;99.90
29687;DHT22;16599;47.078;15.536;2023-05-02T07:28:34;12.50;99.90
29687;DHT22;16599;47.078;15.536;2023-05-02T07:31:01;12.50;99.90
29687;DHT22;16599;47.078;15.536;2023-05-02T07:33:28;12.40;99.90
29687;DHT22;16599;47.078;15.536;2023-05-02T07:35:55;12.50;99.90
29687;DHT22;16599;47.078;15.536;2023-05-02T07:38:22;12.50;99.90
29687;DHT22;16599;47.078;15.536;2023-05-02T07:40:49;12.60;99.90
29687;DHT22;16599;47.078;15.536;2023-05-02T07:43:16;12.80;99.90
29687;DHT22;16599;47.078;15.536;2023-05-02T07:45:42;12.90;99.90
29687;DHT22;16599;47.078;15.536;2023-05-02T07:48:09;13.00;99.90
29687;DHT22;16599;47.078;15.536;2023-05-02T07:50:36;13.00;99.90
29687;DHT22;16599;47.078;15.536;2023-05-02T07:53:03;13.10;99.90
29687;DHT22;16599;47.078;15.536;2023-05-02T07:55:30;13.10;99.90
29687;DHT22;16599;47.078;15.536;2023-05-02T07:57:58;13.30;99.90
29687;DHT22;16599;47.078;15.536;2023-05-02T08:00:26;13.50;99.90
29687;DHT22;16599;47.078;15.536;2023-05-02T08:02:53;13.50;99.90
29687;DHT22;16599;47.078;15.536;2023-05-02T08:05:22;13.50;99.90
29687;DHT22;16599;47.078;15.536;2023-05-02T08:07:49;13.40;99.90
29687;DHT22;16599;47.078;15.536;2023-05-02T08:10:16;13.50;99.90
29687;DHT22;16599;47.078;15.536;2023-05-02T08:12:42;13.40;99.90
29687;DHT22;16599;47.078;15.536;2023-05-02T08:15:11;13.40;99.90
29687;DHT22;16599;47.078;15.536;2023-05-02T08:17:39;13.30;99.90
29687;DHT22;16599;47.078;15.536;2023-05-02T08:20:06;13.30;99.90
29687;DHT22;16599;47.078;15.536;2023-05-02T08:22:33;13.40;99.90
29687;DHT22;16599;47.078;15.536;2023-05-02T08:25:00;13.50;99.90
29687;DHT22;16599;47.078;15.536;2023-05-02T08:27:27;13.50;99.90
29687;DHT22;16599;47.078;15.536;2023-05-02T08:29:54;13.60;99.90
29687;DHT22;16599;47.078;15.536;2023-05-02T08:32:22;13.60;99.90
29687;DHT22;16599;47.078;15.536;2023-05-02T08:34:49;13.80;99.90
29687;DHT22;16599;47.078;15.536;2023-05-02T08:37:16;13.80;99.90
29687;DHT22;16599;47.078;15.536;2023-05-02T08:39:44;14.00;99.90
29687;DHT22;16599;47.078;15.536;2023-05-02T08:42:10;14.10;99.90
29687;DHT22;16599;47.078;15.536;2023-05-02T08:44:37;14.20;99.90
29687;DHT22;16599;47.078;15.536;2023-05-02T08:47:04;14.30;99.90
29687;DHT22;16599;47.078;15.536;2023-05-02T08:49:34;14.30;99.90
29687;DHT22;16599;47.078;15.536;2023-05-02T08:52:01;14.50;99.90
29687;DHT22;16599;47.078;15.536;2023-05-02T08:54:29;14.50;99.90
29687;DHT22;16599;47.078;15.536;2023-05-02T08:56:57;14.60;99.90
29687;DHT22;16599;47.078;15.536;2023-05-02T08:59:25;14.70;99.90
29687;DHT22;16599;47.078;15.536;2023-05-02T09:04:39;14.90;99.90
29687;DHT22;16599;47.078;15.536;2023-05-02T09:07:07;15.00;99.90
29687;DHT22;16599;47.078;15.536;2023-05-02T09:09:36;15.10;99.90
29687;DHT22;16599;47.078;15.536;2023-05-02T09:12:03;15.10;99.90
29687;DHT22;16599;47.078;15.536;2023-05-02T09:14:30;15.00;99.90
29687;DHT22;16599;47.078;15.536;2023-05-02T09:16:58;15.20;99.90
29687;DHT22;16599;47.078;15.536;2023-05-02T09:19:26;15.40;99.90
29687;DHT22;16599;47.078;15.536;2023-05-02T09:21:59;15.40;99.90
29687;DHT22;16599;47.078;15.536;2023-05-02T09:24:27;15.30;99.90
29687;DHT22;16599;47.078;15.536;2023-05-02T09:26:57;15.20;99.90
29687;DHT22;16599;47.078;15.536;2023-05-02T09:29:26;15.40;99.90
29687;DHT22;16599;47.078;15.536;2023-05-02T09:31:54;15.50;99.90
29687;DHT22;16599;47.078;15.536;2023-05-02T09:34:22;15.70;99.90
29687;DHT22;16599;47.078;15.536;2023-05-02T09:36:50;15.70;99.90
29687;DHT22;16599;47.078;15.536;2023-05-02T09:39:27;15.80;99.90
29687;DHT22;16599;47.078;15.536;2023-05-02T09:41:58;15.50;99.90
29687;DHT22;16599;47.078;15.536;2023-05-02T09:44:26;15.40;99.90
29687;DHT22;16599;47.078;15.536;2023-05-02T09:46:55;15.50;99.90
29687;DHT22;16599;47.078;15.536;2023-05-02T09:49:44;15.80;99.90
29687;DHT22;16599;47.078;15.536;2023-05-02T09:52:16;15.70;99.90
29687;DHT22;16599;47.078;15.536;2023-05-02T09:54:43;15.30;99.90
29687;DHT22;16599;47.078;15.536;2023-05-02T09:57:12;15.50;99.90
29687;DHT22;16599;47.078;15.536;2023-05-02T09:59:39;15.60;99.90
29687;DHT22;16599;47.078;15.536;2023-05-02T10:02:07;15.70;99.90
29687;DHT22;16599;47.078;15.536;2023-05-02T10:04:37;15.70;99.90
29687;DHT22;16599;47.078;15.536;2023-05-02T10:07:06;15.40;99.90
29687;DHT22;16599;47.078;15.536;2023-05-02T10:09:40;15.70;99.90
29687;DHT22;16599;47.078;15.536;2023-05-02T10:12:08;15.90;99.90
29687;DHT22;16599;47.078;15.536;2023-05-02T10:14:38;15.80;99.90
29687;DHT22;16599;47.078;15.536;2023-05-02T10:17:19;15.80;99.90
29687;DHT22;16599;47.078;15.536;2023-05-02T10:20:02;15.70;99.90
29687;DHT22;16599;47.078;15.536;2023-05-02T10:22:30;15.90;98.20
29687;DHT22;16599;47.078;15.536;2023-05-02T10:24:57;15.70;97.80
29687;DHT22;16599;47.078;15.536;2023-05-02T10:27:25;15.50;97.00
29687;DHT22;16599;47.078;15.536;2023-05-02T10:29:53;15.60;97.30
29687;DHT22;16599;47.078;15.536;2023-05-02T10:32:23;15.70;96.90
29687;DHT22;16599;47.078;15.536;2023-05-02T10:34:55;15.50;96.20
29687;DHT22;16599;47.078;15.536;2023-05-02T10:37:25;15.70;97.30
29687;DHT22;16599;47.078;15.536;2023-05-02T10:39:52;15.70;96.20
29687;DHT22;16599;47.078;15.536;2023-05-02T10:42:19;15.70;96.70
29687;DHT22;16599;47.078;15.536;2023-05-02T10:44:47;15.60;95.90
29687;DHT22;16599;47.078;15.536;2023-05-02T10:47:23;15.60;96.40
29687;DHT22;16599;47.078;15.536;2023-05-02T10:49:52;15.70;97.70
29687;DHT22;16599;47.078;15.536;2023-05-02T10:52:27;15.60;97.50
29687;DHT22;16599;47.078;15.536;2023-05-02T10:55:19;15.50;99.70
29687;DHT22;16599;47.078;15.536;2023-05-02T10:58:19;15.50;97.50
29687;DHT22;16599;47.078;15.536;2023-05-02T11:00:46;15.40;96.00
29687;DHT22;16599;47.078;15.536;2023-05-02T11:03:14;15.20;96.40
29687;DHT22;16599;47.078;15.536;2023-05-02T11:06:05;15.20;98.00
29687;DHT22;16599;47.078;15.536;2023-05-02T11:08:35;15.20;96.60
29687;DHT22;16599;47.078;15.536;2023-05-02T11:11:37;15.20;96.10
29687;DHT22;16599;47.078;15.536;2023-05-02T11:14:04;15.30;97.40
29687;DHT22;16599;47.078;15.536;2023-05-02T11:24:44;15.10;97.10
29687;DHT22;16599;47.078;15.536;2023-05-02T11:30:00;15.10;99.90
29687;DHT22;16599;47.078;15.536;2023-05-02T11:35:19;15.00;98.70
29687;DHT22;16599;47.078;15.536;2023-05-02T11:38:00;15.10;99.90
29687;DHT22;16599;47.078;15.536;2023-05-02T11:40:31;15.20;99.90
29687;DHT22;16599;47.078;15.536;2023-05-02T11:42:59;15.10;99.90
29687;DHT22;16599;47.078;15.536;2023-05-02T11:45:36;15.00;99.90
29687;DHT22;16599;47.078;15.536;2023-05-02T11:48:06;15.10;99.90
29687;DHT22;16599;47.078;15.536;2023-05-02T11:50:55;15.10;99.90
29687;DHT22;16599;47.078;15.536;2023-05-02T11:53:26;15.20;99.90
29687;DHT22;16599;47.078;15.536;2023-05-02T11:55:56;15.10;99.90
29687;DHT22;16599;47.078;15.536;2023-05-02T11:58:29;15.10;99.90
29687;DHT22;16599;47.078;15.536;2023-05-02T12:01:09;15.10;99.90
29687;DHT22;16599;47.078;15.536;2023-05-02T12:03:38;15.20;99.90
29687;DHT22;16599;47.078;15.536;2023-05-02T12:06:11;15.10;99.90
29687;DHT22;16599;47.078;15.536;2023-05-02T12:08:39;15.10;99.90
29687;DHT22;16599;47.078;15.536;2023-05-02T12:11:07;15.10;99.90
29687;DHT22;16599;47.078;15.536;2023-05-02T12:13:34;15.10;99.90
29687;DHT22;16599;47.078;15.536;2023-05-02T12:16:09;15.00;99.90
29687;DHT22;16599;47.078;15.536;2023-05-02T12:18:36;15.00;99.90
29687;DHT22;16599;47.078;15.536;2023-05-02T12:21:05;14.90;99.90
29687;DHT22;16599;47.078;15.536;2023-05-02T12:23:32;14.90;99.90
29687;DHT22;16599;47.078;15.536;2023-05-02T12:26:15;14.80;99.90
29687;DHT22;16599;47.078;15.536;2023-05-02T12:28:53;14.70;99.90
29687;DHT22;16599;47.078;15.536;2023-05-02T12:31:24;14.50;99.90
29687;DHT22;16599;47.078;15.536;2023-05-02T12:33:52;14.50;99.90
29687;DHT22;16599;47.078;15.536;2023-05-02T12:36:23;14.60;99.90
29687;DHT22;16599;47.078;15.536;2023-05-02T12:38:52;14.40;99.90
29687;DHT22;16599;47.078;15.536;2023-05-02T12:41:34;14.30;99.90
29687;DHT22;16599;47.078;15.536;2023-05-02T12:44:02;14.20;99.90
29687;DHT22;16599;47.078;15.536;2023-05-02T12:46:29;14.10;99.90
29687;DHT22;16599;47.078;15.536;2023-05-02T12:49:07;14.10;99.90
29687;DHT22;16599;47.078;15.536;2023-05-02T12:51:35;14.00;99.90
29687;DHT22;16599;47.078;15.536;2023-05-02T12:54:03;14.00;99.90
29687;DHT22;16599;47.078;15.536;2023-05-02T12:56:38;13.90;99.90
29687;DHT22;16599;47.078;15.536;2023-05-02T12:59:05;13.80;99.90
29687;DHT22;16599;47.078;15.536;2023-05-02T13:01:33;13.60;99.90
29687;DHT22;16599;47.078;15.536;2023-05-02T13:04:01;13.40;99.90
29687;DHT22;16599;47.078;15.536;2023-05-02T13:06:28;13.50;99.90
29687;DHT22;16599;47.078;15.536;2023-05-02T13:08:55;13.60;99.90
29687;DHT22;16599;47.078;15.536;2023-05-02T13:11:22;13.30;99.90
29687;DHT22;16599;47.078;15.536;2023-05-02T13:13:50;13.50;99.90
29687;DHT22;16599;47.078;15.536;2023-05-02T13:16:16;13.60;99.90
29687;DHT22;16599;47.078;15.536;2023-05-02T13:18:44;13.60;99.90
29687;DHT22;16599;47.078;15.536;2023-05-02T13:21:13;13.60;99.90
29687;DHT22;16599;47.078;15.536;2023-05-02T13:23:40;13.80;99.90
29687;DHT22;16599;47.078;15.536;2023-05-02T13:26:07;13.50;99.90
29687;DHT22;16599;47.078;15.536;2023-05-02T13:28:34;13.50;99.90
29687;DHT22;16599;47.078;15.536;2023-05-02T13:31:03;13.40;99.90
29687;DHT22;16599;47.078;15.536;2023-05-02T13:33:30;13.40;99.90
29687;DHT22;16599;47.078;15.536;2023-05-02T13:35:56;13.30;99.90
29687;DHT22;16599;47.078;15.536;2023-05-02T13:38:24;13.20;99.90
29687;DHT22;16599;47.078;15.536;2023-05-02T13:40:50;13.40;99.90
29687;DHT22;16599;47.078;15.536;2023-05-02T13:43:17;13.30;99.90
29687;DHT22;16599;47.078;15.536;2023-05-02T13:45:44;13.30;99.90
29687;DHT22;16599;47.078;15.536;2023-05-02T13:48:14;13.40;99.90
29687;DHT22;16599;47.078;15.536;2023-05-02T13:50:41;13.40;99.90
29687;DHT22;16599;47.078;15.536;2023-05-02T13:53:08;13.40;99.90
29687;DHT22;16599;47.078;15.536;2023-05-02T13:55:35;13.10;99.90
29687;DHT22;16599;47.078;15.536;2023-05-02T13:58:02;13.40;99.90
29687;DHT22;16599;47.078;15.536;2023-05-02T14:00:29;13.30;99.90
29687;DHT22;16599;47.078;15.536;2023-05-02T14:02:56;13.50;99.90
29687;DHT22;16599;47.078;15.536;2023-05-02T14:05:23;13.40;99.90
29687;DHT22;16599;47.078;15.536;2023-05-02T14:07:50;13.30;99.90
29687;DHT22;16599;47.078;15.536;2023-05-02T14:10:16;13.20;99.90
29687;DHT22;16599;47.078;15.536;2023-05-02T14:12:43;13.30;99.90
29687;DHT22;16599;47.078;15.536;2023-05-02T14:15:10;13.40;99.90
29687;DHT22;16599;47.078;15.536;2023-05-02T14:17:38;13.60;99.90
29687;DHT22;16599;47.078;15.536;2023-05-02T14:20:05;13.60;99.90
29687;DHT22;16599;47.078;15.536;2023-05-02T14:22:33;13.20;99.90
29687;DHT22;16599;47.078;15.536;2023-05-02T14:24:59;13.40;99.90
29687;DHT22;16599;47.078;15.536;2023-05-02T14:27:26;13.60;99.90
29687;DHT22;16599;47.078;15.536;2023-05-02T14:29:53;13.40;99.90
29687;DHT22;16599;47.078;15.536;2023-05-02T14:32:20;13.40;99.90
29687;DHT22;16599;47.078;15.536;2023-05-02T14:34:47;13.50;99.90
29687;DHT22;16599;47.078;15.536;2023-05-02T14:37:14;13.40;99.90
29687;DHT22;16599;47.078;15.536;2023-05-02T14:39:41;13.50;99.90
29687;DHT22;16599;47.078;15.536;2023-05-02T14:42:10;13.30;99.90
29687;DHT22;16599;47.078;15.536;2023-05-02T14:44:37;13.50;99.90
29687;DHT22;16599;47.078;15.536;2023-05-02T14:47:03;13.60;99.90
29687;DHT22;16599;47.078;15.536;2023-05-02T14:49:30;13.70;99.90
29687;DHT22;16599;47.078;15.536;2023-05-02T14:51:57;13.80;99.90
29687;DHT22;16599;47.078;15.536;2023-05-02T14:54:28;13.90;99.90
29687;DHT22;16599;47.078;15.536;2023-05-02T14:56:57;13.90;99.90
29687;DHT22;16599;47.078;15.536;2023-05-02T14:59:30;13.90;99.90
29687;DHT22;16599;47.078;15.536;2023-05-02T15:01:57;13.60;99.90
29687;DHT22;16599;47.078;15.536;2023-05-02T15:04:24;13.60;99.90
29687;DHT22;16599;47.078;15.536;2023-05-02T15:06:53;13.50;99.90
29687;DHT22;16599;47.078;15.536;2023-05-02T15:09:21;13.60;99.90
29687;DHT22;16599;47.078;15.536;2023-05-02T15:11:48;13.60;99.90
29687;DHT22;16599;47.078;15.536;2023-05-02T15:14:15;13.70;99.90
29687;DHT22;16599;47.078;15.536;2023-05-02T15:16:42;13.80;99.90
29687;DHT22;16599;47.078;15.536;2023-05-02T15:19:10;13.90;99.90
29687;DHT22;16599;47.078;15.536;2023-05-02T15:21:36;13.80;99.90
29687;DHT22;16599;47.078;15.536;2023-05-02T15:24:03;13.80;99.90
29687;DHT22;16599;47.078;15.536;2023-05-02T15:26:31;13.70;99.90
29687;DHT22;16599;47.078;15.536;2023-05-02T15:28:58;13.70;99.90
29687;DHT22;16599;47.078;15.536;2023-05-02T15:31:25;13.60;99.90
29687;DHT22;16599;47.078;15.536;2023-05-02T15:33:51;13.40;99.90
29687;DHT22;16599;47.078;15.536;2023-05-02T15:36:18;13.30;99.90
29687;DHT22;16599;47.078;15.536;2023-05-02T15:38:45;13.20;99.90
29687;DHT22;16599;47.078;15.536;2023-05-02T15:41:12;13.30;99.90
29687;DHT22;16599;47.078;15.536;2023-05-02T15:43:39;13.40;99.90
29687;DHT22;16599;47.078;15.536;2023-05-02T15:46:06;13.40;99.90
29687;DHT22;16599;47.078;15.536;2023-05-02T15:48:33;13.40;99.90
29687;DHT22;16599;47.078;15.536;2023-05-02T15:51:00;13.40;99.90
29687;DHT22;16599;47.078;15.536;2023-05-02T15:53:28;13.40;99.90
29687;DHT22;16599;47.078;15.536;2023-05-02T15:56:13;13.30;99.90
29687;DHT22;16599;47.078;15.536;2023-05-02T15:58:40;13.30;99.90
29687;DHT22;16599;47.078;15.536;2023-05-02T16:01:28;13.30;99.90
29687;DHT22;16599;47.078;15.536;2023-05-02T16:03:54;13.30;99.90
29687;DHT22;16599;47.078;15.536;2023-05-02T16:06:22;13.30;99.90
29687;DHT22;16599;47.078;15.536;2023-05-02T16:08:48;13.30;99.90